createdAt,value
2019-01-10T00:03:47.655Z,8.40
2019-01-10T00:09:52.857Z,10.77
2019-01-10T00:15:58.089Z,10.47
2019-01-10T00:22:03.189Z,10.67
2019-01-10T00:28:19.059Z,11.17
2019-01-10T00:34:23.378Z,5.53
2019-01-10T00:40:28.819Z,12.40
2019-01-10T00:46:35.870Z,9.27
2019-01-10T00:52:40.264Z,8.50
2019-01-10T00:58:45.558Z,6.47
2019-01-10T01:04:49.811Z,11.30
2019-01-10T01:10:54.579Z,12.07
2019-01-10T01:16:58.969Z,10.30
2019-01-10T01:23:05.708Z,11.83
2019-01-10T01:29:11.182Z,11.77
2019-01-10T01:35:16.640Z,15.00
2019-01-10T01:41:20.899Z,12.43
2019-01-10T01:47:25.222Z,10.70
2019-01-10T01:53:29.444Z,9.40
2019-01-10T01:59:33.756Z,9.93
2019-01-10T02:05:37.973Z,7.30
2019-01-10T02:11:42.258Z,10.53
2019-01-10T02:17:49.191Z,9.03
2019-01-10T02:23:52.667Z,10.90
2019-01-10T02:29:56.930Z,10.60
2019-01-10T02:36:01.384Z,8.97
2019-01-10T02:42:05.670Z,5.40
2019-01-10T02:48:09.989Z,10.70
2019-01-10T02:54:14.220Z,8.03
2019-01-10T03:00:21.218Z,10.53
2019-01-10T03:06:25.524Z,9.27
2019-01-10T03:12:30.073Z,7.23
2019-01-10T03:18:34.293Z,6.70
2019-01-10T03:24:38.803Z,8.13
2019-01-10T03:30:45.341Z,13.43
2019-01-10T03:36:49.972Z,11.53
2019-01-10T03:42:54.171Z,9.27
2019-01-10T03:48:58.485Z,7.80
2019-01-10T03:55:02.767Z,13.50
2019-01-10T04:01:07.007Z,10.07
2019-01-10T04:07:11.293Z,8.07
2019-01-10T04:13:15.567Z,7.97
2019-01-10T04:19:19.784Z,5.30
2019-01-10T04:25:24.328Z,11.17
2019-01-10T04:31:28.617Z,15.47
2019-01-10T04:37:32.840Z,10.07
2019-01-10T04:43:37.085Z,9.93
2019-01-10T04:49:41.305Z,15.17
2019-01-10T04:55:45.694Z,14.83
2019-01-10T05:01:49.988Z,10.10
2019-01-10T05:07:55.990Z,12.17
2019-01-10T05:14:00.316Z,10.67
2019-01-10T05:20:06.009Z,17.20
2019-01-10T05:26:10.310Z,14.83
2019-01-10T05:32:14.660Z,12.63
2019-01-10T05:38:18.877Z,10.40
2019-01-10T05:44:26.658Z,17.50
2019-01-10T05:50:29.076Z,13.70
2019-01-10T05:56:33.754Z,10.87
2019-01-10T06:02:38.123Z,14.57
2019-01-10T06:08:42.334Z,14.17
2019-01-10T06:14:46.580Z,15.73
2019-01-10T06:20:50.845Z,14.40
2019-01-10T06:26:55.097Z,15.60
2019-01-10T06:32:59.437Z,13.77
2019-01-10T06:39:05.253Z,14.53
2019-01-10T06:45:10.882Z,12.47
2019-01-10T06:51:15.203Z,12.83
2019-01-10T06:57:19.787Z,12.37
2019-01-10T07:03:24.074Z,18.07
2019-01-10T07:09:28.331Z,13.20
2019-01-10T07:15:32.825Z,13.50
2019-01-10T07:22:08.983Z,15.03
2019-01-10T07:28:28.669Z,13.47
2019-01-10T07:34:32.915Z,13.47
2019-01-10T07:40:40.113Z,12.70
2019-01-10T07:46:47.432Z,13.93
2019-01-10T07:52:52.419Z,18.20
2019-01-10T07:58:56.709Z,14.40
2019-01-10T08:05:00.949Z,13.57
2019-01-10T08:11:05.331Z,15.37
2019-01-10T08:17:16.027Z,17.63
2019-01-10T08:23:15.887Z,14.37
2019-01-10T08:29:20.117Z,16.13
2019-01-10T08:35:26.186Z,18.67
2019-01-10T08:41:30.544Z,10.73
2019-01-10T08:47:34.842Z,10.97
2019-01-10T08:53:39.174Z,14.53
2019-01-10T08:59:43.479Z,15.27
2019-01-10T09:05:47.703Z,17.80
2019-01-10T09:11:51.934Z,16.30
2019-01-10T09:17:56.318Z,20.27
2019-01-10T09:24:00.531Z,18.10
2019-01-10T09:30:07.627Z,13.57
2019-01-10T09:36:12.052Z,20.53
2019-01-10T09:42:16.334Z,20.73
2019-01-10T09:48:20.564Z,16.73
2019-01-10T09:54:25.552Z,20.40
2019-01-10T10:00:31.133Z,22.57
2019-01-10T10:06:35.409Z,15.77
2019-01-10T10:12:39.664Z,18.17
2019-01-10T10:18:44.008Z,15.07
2019-01-10T10:24:48.241Z,15.97
2019-01-10T10:30:52.481Z,17.73
2019-01-10T10:36:56.732Z,16.50
2019-01-10T10:43:00.925Z,18.70
2019-01-10T10:49:05.309Z,15.37
2019-01-10T10:55:10.047Z,18.37
2019-01-10T11:01:14.337Z,18.27
2019-01-10T11:07:18.835Z,17.93
2019-01-10T11:13:23.419Z,15.20
2019-01-10T11:19:27.726Z,12.40
2019-01-10T11:25:32.125Z,19.63
2019-01-10T11:31:36.423Z,20.60
2019-01-10T11:37:42.667Z,16.03
2019-01-10T11:43:47.249Z,18.47
2019-01-10T11:49:51.477Z,14.13
2019-01-10T11:55:55.753Z,13.63
2019-01-10T12:02:00.077Z,14.93
2019-01-10T12:08:04.492Z,14.70
2019-01-10T12:14:08.723Z,11.67
2019-01-10T12:20:13.977Z,15.13
2019-01-10T12:26:18.276Z,13.57
2019-01-10T12:32:22.599Z,17.20
2019-01-10T12:38:26.861Z,15.63
2019-01-10T12:44:31.152Z,17.43
2019-01-10T12:50:35.996Z,14.27
2019-01-10T12:56:40.283Z,18.27
2019-01-10T13:02:44.708Z,13.10
2019-01-10T13:08:49.120Z,22.67
2019-01-10T13:14:53.407Z,36.70
2019-01-10T13:20:57.628Z,18.60
2019-01-10T13:27:01.858Z,11.07
2019-01-10T13:33:06.238Z,13.50
2019-01-10T13:39:10.584Z,11.47
2019-01-10T13:45:18.572Z,9.43
2019-01-10T13:51:22.920Z,9.10
2019-01-10T13:57:28.213Z,11.10
2019-01-10T14:03:32.548Z,13.27
2019-01-10T14:09:36.776Z,12.03
2019-01-10T14:15:40.992Z,8.50
2019-01-10T14:21:46.782Z,11.53
2019-01-10T14:27:51.408Z,11.73
2019-01-10T14:33:55.698Z,10.10
2019-01-10T14:39:59.938Z,13.60
2019-01-10T14:46:04.305Z,17.27
2019-01-10T14:52:08.507Z,13.57
2019-01-10T14:58:13.772Z,7.73
2019-01-10T15:04:18.125Z,7.13
2019-01-10T15:10:22.457Z,12.93
2019-01-10T15:16:26.691Z,10.63
2019-01-10T15:22:30.972Z,13.73
2019-01-10T15:28:35.266Z,10.97
2019-01-10T15:34:39.737Z,16.67
2019-01-10T15:40:44.142Z,14.40
2019-01-10T15:46:48.474Z,15.77
2019-01-10T15:52:52.861Z,16.67
2019-01-10T15:58:57.137Z,17.10
2019-01-10T16:05:01.419Z,15.50
2019-01-10T16:11:05.665Z,21.03
2019-01-10T16:17:09.983Z,20.27
2019-01-10T16:23:14.300Z,20.33
2019-01-10T16:29:18.830Z,41.73
2019-01-10T16:35:23.210Z,18.80
2019-01-10T16:41:27.410Z,17.20
2019-01-10T16:47:31.826Z,19.87
2019-01-10T16:53:36.202Z,27.30
2019-01-10T16:59:40.413Z,23.50
2019-01-10T17:05:44.838Z,23.97
2019-01-10T17:11:49.265Z,25.10
2019-01-10T17:17:53.550Z,28.67
2019-01-10T17:23:57.901Z,23.23
2019-01-10T17:30:02.135Z,30.17
2019-01-10T17:36:06.379Z,19.50
2019-01-10T17:42:10.640Z,32.40
2019-01-10T17:48:14.858Z,58.70
2019-01-10T17:54:19.161Z,31.13
2019-01-10T18:00:26.051Z,17.23
2019-01-10T18:06:30.408Z,14.47
2019-01-10T18:12:34.688Z,15.23
2019-01-10T18:18:39.136Z,19.20
2019-01-10T18:24:43.363Z,29.00
2019-01-10T18:30:47.653Z,38.30
2019-01-10T18:36:51.938Z,25.87
2019-01-10T18:42:56.475Z,19.37
2019-01-10T18:49:00.676Z,17.77
2019-01-10T18:55:05.441Z,16.43
2019-01-10T19:01:09.667Z,18.43
2019-01-10T19:07:14.082Z,19.37
2019-01-10T19:13:18.268Z,20.17
2019-01-10T19:19:22.659Z,19.83
2019-01-10T19:25:27.010Z,18.83
2019-01-10T19:31:31.243Z,23.70
2019-01-10T19:37:35.719Z,22.83
2019-01-10T19:43:40.131Z,22.17
2019-01-10T19:49:44.517Z,17.60
2019-01-10T19:55:48.851Z,17.67
2019-01-10T20:01:53.419Z,24.43
2019-01-10T20:07:57.735Z,22.13
2019-01-10T20:14:02.043Z,24.90
2019-01-10T20:20:12.001Z,18.70
2019-01-10T20:26:16.454Z,22.47
2019-01-10T20:32:20.893Z,17.07
2019-01-10T20:38:25.131Z,17.40
2019-01-10T20:44:29.374Z,16.17
2019-01-10T20:50:33.765Z,16.70
2019-01-10T20:56:38.027Z,22.47
2019-01-10T21:02:42.324Z,23.20
2019-01-10T21:08:46.640Z,21.33
2019-01-10T21:14:51.250Z,20.03
2019-01-10T21:20:55.458Z,21.07
2019-01-10T21:26:59.674Z,22.23
2019-01-10T21:33:04.068Z,24.57
2019-01-10T21:39:08.501Z,28.03
2019-01-10T21:45:15.156Z,27.80
2019-01-10T21:51:19.444Z,28.90
2019-01-10T21:57:24.054Z,27.30
2019-01-10T22:03:28.339Z,22.83
2019-01-10T22:09:32.642Z,27.57
2019-01-10T22:15:36.874Z,26.50
2019-01-10T22:21:41.236Z,26.93
2019-01-10T22:27:45.471Z,33.07
2019-01-10T22:33:49.809Z,33.37
2019-01-10T22:39:54.054Z,25.37
2019-01-10T22:45:58.256Z,33.40
2019-01-10T22:52:02.473Z,30.50
2019-01-10T22:58:06.771Z,29.53
2019-01-10T23:04:13.405Z,33.00
2019-01-10T23:10:17.679Z,38.13
2019-01-10T23:16:22.099Z,36.53
2019-01-10T23:22:26.357Z,36.80
2019-01-10T23:28:30.629Z,34.73
2019-01-10T23:34:34.835Z,35.13
2019-01-10T23:40:39.223Z,34.40
2019-01-10T23:46:43.427Z,33.77
2019-01-10T23:52:47.657Z,36.77
2019-01-10T23:58:51.875Z,33.83
